createdAt,value
2022-08-12T00:00:35.519Z,2.08
2022-08-12T00:03:22.115Z,1.52
2022-08-12T00:06:08.124Z,2.40
2022-08-12T00:08:54.945Z,2.75
2022-08-12T00:11:42.237Z,2.50
2022-08-12T00:14:28.087Z,1.98
2022-08-12T00:17:13.570Z,2.17
2022-08-12T00:19:58.956Z,1.67
2022-08-12T00:22:44.288Z,2.00
2022-08-12T00:26:00.442Z,1.65
2022-08-12T00:28:34.968Z,2.22
2022-08-12T00:31:20.438Z,2.53
2022-08-12T00:34:05.816Z,2.35
2022-08-12T00:36:51.260Z,2.03
2022-08-12T00:39:36.713Z,2.40
2022-08-12T00:42:13.159Z,2.38
2022-08-12T00:44:41.244Z,1.95
2022-08-12T00:47:24.093Z,1.83
2022-08-12T00:49:54.799Z,2.40
2022-08-12T00:52:22.601Z,2.20
2022-08-12T00:54:57.043Z,2.30
2022-08-12T00:57:37.581Z,2.55
2022-08-12T01:00:14.640Z,2.00
2022-08-12T01:02:45.628Z,2.30
2022-08-12T01:05:34.541Z,2.40
2022-08-12T01:08:19.814Z,2.53
2022-08-12T01:11:06.685Z,2.38
2022-08-12T01:13:34.879Z,2.15
2022-08-12T01:16:04.504Z,2.50
2022-08-12T01:18:34.031Z,2.72
2022-08-12T01:21:12.866Z,2.00
2022-08-12T01:23:53.250Z,2.55
2022-08-12T01:26:26.052Z,2.03
2022-08-12T01:28:58.933Z,2.58
2022-08-12T01:31:28.081Z,2.33
2022-08-12T01:34:35.314Z,2.42
2022-08-12T01:37:02.201Z,2.45
2022-08-12T01:40:33.300Z,2.93
2022-08-12T01:45:18.137Z,2.33
2022-08-12T01:48:04.924Z,2.50
2022-08-12T01:50:47.711Z,2.45
2022-08-12T01:53:16.017Z,2.35
2022-08-12T01:55:46.368Z,2.58
2022-08-12T01:58:22.454Z,2.33
2022-08-12T02:00:59.035Z,2.90
2022-08-12T02:04:04.874Z,2.70
2022-08-12T02:07:28.443Z,2.85
2022-08-12T02:10:50.401Z,2.35
2022-08-12T02:13:49.618Z,2.85
2022-08-12T02:16:41.436Z,2.50
2022-08-12T02:19:27.604Z,2.65
2022-08-12T02:22:06.676Z,2.67
2022-08-12T02:24:37.444Z,2.58
2022-08-12T02:27:08.291Z,2.38
2022-08-12T02:29:36.054Z,2.53
2022-08-12T02:32:04.340Z,2.63
2022-08-12T02:34:31.673Z,2.38
2022-08-12T02:37:03.550Z,2.33
2022-08-12T02:39:33.678Z,2.33
2022-08-12T02:44:35.481Z,2.17
2022-08-12T02:47:06.329Z,2.80
2022-08-12T02:49:40.738Z,2.60
2022-08-12T02:52:08.034Z,2.30
2022-08-12T02:54:35.770Z,2.85
2022-08-12T02:57:02.575Z,2.75
2022-08-12T02:59:29.923Z,2.70
2022-08-12T03:02:03.692Z,2.97
2022-08-12T03:04:43.896Z,2.45
2022-08-12T03:07:18.284Z,2.80
2022-08-12T03:10:04.177Z,2.78
2022-08-12T03:12:41.444Z,2.45
2022-08-12T03:15:18.219Z,2.60
2022-08-12T03:18:25.907Z,2.45
2022-08-12T03:20:40.398Z,2.53
2022-08-12T03:23:19.432Z,2.25
2022-08-12T03:26:00.662Z,2.85
2022-08-12T03:28:48.370Z,2.58
2022-08-12T03:31:15.001Z,2.80
2022-08-12T03:34:00.429Z,3.13
2022-08-12T03:36:35.058Z,2.63
2022-08-12T03:39:36.424Z,2.45
2022-08-12T03:42:12.133Z,2.80
2022-08-12T03:45:00.905Z,2.72
2022-08-12T03:47:58.149Z,2.38
2022-08-12T03:50:44.580Z,3.10
2022-08-12T03:53:29.789Z,3.03
2022-08-12T03:56:15.284Z,2.85
2022-08-12T03:59:00.671Z,2.97
2022-08-12T04:01:27.487Z,2.53
2022-08-12T04:03:54.833Z,3.08
2022-08-12T04:06:34.894Z,2.80
2022-08-12T04:09:16.491Z,2.88
2022-08-12T04:12:03.565Z,2.90
2022-08-12T04:14:30.450Z,2.65
2022-08-12T04:16:57.394Z,3.08
2022-08-12T04:19:26.088Z,2.80
2022-08-12T04:22:02.357Z,2.95
2022-08-12T04:24:38.006Z,3.05
2022-08-12T04:27:10.253Z,3.10
2022-08-12T04:30:21.067Z,2.13
2022-08-12T04:32:25.943Z,2.60
2022-08-12T04:34:53.352Z,2.40
2022-08-12T04:37:19.996Z,3.05
2022-08-12T04:39:47.326Z,2.55
2022-08-12T04:42:14.049Z,2.25
2022-08-12T04:44:42.167Z,2.25
2022-08-12T04:47:14.117Z,1.90
2022-08-12T04:49:41.281Z,2.22
2022-08-12T04:52:07.941Z,2.20
2022-08-12T04:54:35.093Z,2.42
2022-08-12T04:57:03.227Z,2.17
2022-08-12T05:02:21.170Z,2.92
2022-08-12T05:04:53.399Z,2.05
2022-08-12T05:07:20.847Z,1.80
2022-08-12T05:10:01.132Z,2.55
2022-08-12T05:12:37.975Z,1.67
2022-08-12T05:15:16.795Z,1.48
2022-08-12T05:17:53.204Z,1.70
2022-08-12T05:20:22.943Z,1.50
2022-08-12T05:22:50.086Z,1.85
2022-08-12T05:25:22.286Z,2.15
2022-08-12T05:27:58.227Z,1.38
2022-08-12T05:30:30.902Z,1.73
2022-08-12T05:33:00.176Z,1.85
2022-08-12T05:35:28.015Z,1.92
2022-08-12T05:38:14.630Z,1.88
2022-08-12T05:40:42.062Z,2.10
2022-08-12T05:43:08.933Z,1.83
2022-08-12T05:45:35.479Z,2.03
2022-08-12T05:48:02.729Z,1.70
2022-08-12T05:50:29.520Z,2.20
2022-08-12T05:52:56.049Z,1.67
2022-08-12T05:55:25.874Z,1.42
2022-08-12T05:57:56.341Z,1.75
2022-08-12T06:00:25.731Z,1.35
2022-08-12T06:03:02.352Z,1.45
2022-08-12T06:05:43.086Z,1.70
2022-08-12T06:08:20.875Z,1.38
2022-08-12T06:10:47.448Z,1.60
2022-08-12T06:13:15.183Z,1.23
2022-08-12T06:15:55.724Z,1.20
2022-08-12T06:18:24.424Z,1.17
2022-08-12T06:21:00.218Z,1.05
2022-08-12T06:23:29.514Z,1.10
2022-08-12T06:25:56.527Z,1.40
2022-08-12T06:28:23.120Z,1.25
2022-08-12T06:31:08.632Z,1.50
2022-08-12T06:33:55.483Z,1.10
2022-08-12T06:36:29.509Z,1.67
2022-08-12T06:38:57.365Z,1.30
2022-08-12T06:42:02.721Z,1.13
2022-08-12T06:44:29.092Z,1.35
2022-08-12T06:46:56.812Z,1.10
2022-08-12T06:49:25.486Z,1.15
2022-08-12T06:51:56.216Z,1.02
2022-08-12T06:54:30.808Z,1.45
2022-08-12T06:58:06.025Z,1.10
2022-08-12T06:59:44.887Z,0.80
2022-08-12T07:02:11.473Z,1.23
2022-08-12T07:04:39.209Z,1.00
2022-08-12T07:07:10.469Z,0.82
2022-08-12T07:10:04.421Z,1.42
2022-08-12T07:12:28.064Z,1.25
2022-08-12T07:14:56.694Z,1.38
2022-08-12T07:17:23.370Z,1.10
2022-08-12T07:19:51.897Z,1.13
2022-08-12T07:22:19.170Z,1.10
2022-08-12T07:25:05.674Z,1.08
2022-08-12T07:27:38.507Z,0.70
2022-08-12T07:30:06.369Z,1.05
2022-08-12T07:32:32.925Z,0.77
2022-08-12T07:34:59.478Z,0.95
2022-08-12T07:37:26.173Z,0.88
2022-08-12T07:40:00.310Z,1.65
2022-08-12T07:42:28.461Z,0.95
2022-08-12T07:44:55.999Z,1.23
2022-08-12T07:47:23.086Z,1.10
2022-08-12T07:50:04.803Z,0.90
2022-08-12T07:52:38.516Z,0.70
2022-08-12T07:55:06.186Z,1.25
2022-08-12T07:57:33.782Z,1.05
2022-08-12T08:00:06.110Z,1.25
2022-08-12T08:02:33.828Z,0.80
2022-08-12T08:05:00.647Z,0.90
2022-08-12T08:07:30.858Z,0.90
2022-08-12T08:10:02.304Z,1.13
2022-08-12T08:12:48.381Z,0.90
2022-08-12T08:15:16.128Z,0.82
2022-08-12T08:18:04.336Z,1.02
2022-08-12T08:20:33.939Z,1.45
2022-08-12T08:23:07.742Z,1.15
2022-08-12T08:25:38.625Z,0.82
2022-08-12T08:28:10.255Z,0.60
2022-08-12T08:30:39.449Z,0.88
2022-08-12T08:33:23.665Z,1.10
2022-08-12T08:35:55.837Z,0.80
2022-08-12T08:38:33.380Z,1.00
2022-08-12T08:42:16.225Z,0.90
2022-08-12T08:44:11.136Z,0.85
2022-08-12T08:46:39.506Z,0.80
2022-08-12T08:49:06.619Z,0.77
2022-08-12T08:51:33.726Z,0.90
2022-08-12T08:54:00.270Z,0.40
2022-08-12T08:56:29.177Z,1.02
2022-08-12T08:58:57.538Z,0.70
2022-08-12T09:01:24.718Z,0.75
2022-08-12T09:05:07.306Z,0.50
2022-08-12T09:06:53.525Z,0.90
2022-08-12T09:09:20.927Z,0.90
2022-08-12T09:12:11.535Z,0.40
2022-08-12T09:14:47.059Z,0.60
2022-08-12T09:20:05.823Z,0.60
2022-08-12T09:22:35.189Z,0.95
2022-08-12T09:25:06.159Z,0.73
2022-08-12T09:28:03.781Z,1.08
2022-08-12T09:30:41.435Z,0.90
2022-08-12T09:33:19.390Z,0.40
2022-08-12T09:36:04.219Z,0.40
2022-08-12T09:38:33.489Z,0.85
2022-08-12T09:42:33.419Z,0.80
2022-08-12T09:44:38.149Z,0.43
2022-08-12T09:46:54.978Z,0.70
2022-08-12T09:49:24.936Z,0.50
2022-08-12T09:58:07.624Z,0.50
2022-08-12T10:00:15.194Z,0.68
2022-08-12T10:03:08.680Z,0.75
2022-08-12T10:06:26.848Z,0.50
2022-08-12T10:08:44.489Z,0.50
2022-08-12T10:12:10.388Z,0.50
2022-08-12T10:14:21.132Z,0.60
2022-08-12T10:17:01.470Z,0.50
2022-08-12T10:19:36.288Z,0.60
2022-08-12T10:22:16.470Z,0.60
2022-08-12T10:24:53.348Z,0.55
2022-08-12T10:28:05.320Z,0.90
2022-08-12T10:30:40.547Z,0.50
2022-08-12T10:33:18.285Z,0.43
2022-08-12T10:35:45.422Z,0.63
2022-08-12T10:38:35.647Z,0.57
2022-08-12T10:41:22.348Z,0.82
2022-08-12T10:43:54.988Z,0.40
2022-08-12T10:46:30.705Z,0.57
2022-08-12T10:49:07.084Z,0.43
2022-08-12T10:52:03.593Z,0.50
2022-08-12T10:54:36.269Z,0.50
2022-08-12T10:57:02.946Z,0.68
2022-08-12T10:59:58.512Z,0.57
2022-08-12T11:04:24.946Z,0.40
2022-08-12T11:07:03.291Z,0.43
2022-08-12T11:08:38.875Z,0.40
2022-08-12T11:10:37.870Z,0.50
2022-08-12T11:13:09.231Z,0.40
2022-08-12T11:16:03.693Z,0.20
2022-08-12T11:18:25.886Z,0.40
2022-08-12T11:20:54.292Z,0.30
2022-08-12T11:23:37.300Z,0.50
2022-08-12T11:26:07.016Z,0.45
2022-08-12T11:28:36.960Z,0.55
2022-08-12T11:31:11.914Z,0.50
2022-08-12T11:34:06.771Z,0.30
2022-08-12T11:36:27.973Z,0.30
2022-08-12T11:38:55.268Z,0.20
2022-08-12T11:41:31.463Z,0.40
2022-08-12T11:44:12.619Z,0.40
2022-08-12T11:46:50.978Z,0.32
2022-08-12T11:49:30.506Z,0.25
2022-08-12T11:51:58.024Z,0.50
2022-08-12T11:54:24.572Z,0.32
2022-08-12T11:56:52.358Z,0.25
2022-08-12T12:02:16.419Z,0.35
2022-08-12T12:04:45.537Z,0.20
2022-08-12T12:07:18.961Z,0.25
2022-08-12T12:09:52.406Z,0.30
2022-08-12T12:12:19.725Z,0.50
2022-08-12T12:14:54.923Z,0.20
2022-08-12T12:17:24.503Z,0.30
2022-08-12T12:19:53.168Z,0.30
2022-08-12T12:22:23.564Z,0.40
2022-08-12T12:24:57.730Z,0.70
2022-08-12T12:28:04.198Z,0.40
2022-08-12T12:30:19.167Z,0.22
2022-08-12T12:32:56.041Z,0.43
2022-08-12T12:36:18.905Z,0.38
2022-08-12T12:38:12.408Z,0.35
2022-08-12T12:40:41.682Z,0.50
2022-08-12T12:43:12.025Z,0.20
2022-08-12T12:45:44.528Z,0.68
2022-08-12T12:48:15.407Z,0.57
2022-08-12T12:51:09.593Z,0.45
2022-08-12T12:54:07.600Z,0.40
2022-08-12T12:56:34.003Z,0.47
2022-08-12T12:59:00.985Z,0.55
2022-08-12T13:01:32.022Z,0.73
2022-08-12T13:04:01.893Z,0.60
2022-08-12T13:06:31.484Z,0.50
2022-08-12T13:09:02.533Z,0.70
2022-08-12T13:11:41.261Z,0.40
2022-08-12T13:14:12.843Z,0.60
2022-08-12T13:16:55.192Z,0.40
2022-08-12T13:19:36.632Z,0.25
2022-08-12T13:22:23.414Z,1.15
2022-08-12T13:24:55.574Z,0.40
2022-08-12T13:27:28.428Z,0.28
2022-08-12T13:30:06.597Z,0.30
2022-08-12T13:32:33.731Z,0.47
2022-08-12T13:35:04.625Z,0.45
2022-08-12T13:37:55.192Z,0.50
2022-08-12T13:40:26.843Z,0.30
2022-08-12T13:42:57.977Z,0.32
2022-08-12T13:45:30.330Z,0.43
2022-08-12T13:48:01.826Z,0.63
2022-08-12T13:50:36.466Z,0.20
2022-08-12T13:53:23.014Z,0.28
2022-08-12T13:55:59.793Z,0.50
2022-08-12T13:58:30.094Z,0.57
2022-08-12T14:00:58.129Z,0.35
2022-08-12T14:03:28.406Z,0.50
2022-08-12T14:06:15.355Z,0.43
2022-08-12T14:08:43.359Z,0.50
2022-08-12T14:11:12.455Z,0.50
2022-08-12T14:14:05.504Z,0.70
2022-08-12T14:16:37.402Z,0.55
2022-08-12T14:19:21.880Z,0.55
2022-08-12T14:22:00.988Z,0.57
2022-08-12T14:24:35.373Z,0.57
2022-08-12T14:27:03.706Z,0.80
2022-08-12T14:29:38.151Z,0.88
2022-08-12T14:32:22.174Z,0.90
2022-08-12T14:34:51.566Z,0.60
2022-08-12T14:37:55.899Z,0.50
2022-08-12T14:40:06.546Z,0.50
2022-08-12T14:42:33.194Z,0.55
2022-08-12T14:45:01.875Z,0.55
2022-08-12T14:47:35.418Z,0.93
2022-08-12T14:50:57.551Z,0.63
2022-08-12T14:58:28.457Z,0.68
2022-08-12T15:01:19.877Z,0.80
2022-08-12T15:03:52.566Z,0.82
2022-08-12T15:06:39.306Z,0.70
2022-08-12T15:09:11.886Z,0.50
2022-08-12T15:11:54.486Z,0.50
2022-08-12T15:14:24.952Z,0.65
2022-08-12T15:16:51.581Z,0.47
2022-08-12T15:20:31.482Z,0.55
2022-08-12T15:22:37.064Z,0.50
2022-08-12T15:24:52.801Z,0.50
2022-08-12T15:27:22.324Z,0.52
2022-08-12T15:29:58.731Z,0.85
2022-08-12T15:32:32.035Z,0.88
2022-08-12T15:35:00.695Z,0.88
2022-08-12T15:38:08.377Z,0.50
2022-08-12T15:40:14.588Z,0.73
2022-08-12T15:42:50.993Z,0.55
2022-08-12T15:45:23.643Z,0.63
2022-08-12T15:47:53.196Z,0.70
2022-08-12T15:50:32.420Z,0.70
2022-08-12T15:53:07.536Z,1.05
2022-08-12T15:55:45.891Z,0.65
2022-08-12T15:58:13.129Z,0.82
2022-08-12T16:00:43.273Z,0.90
2022-08-12T16:03:13.678Z,0.52
2022-08-12T16:06:12.302Z,0.50
2022-08-12T16:08:41.395Z,0.70
2022-08-12T16:11:15.279Z,0.55
2022-08-12T16:13:44.268Z,0.70
2022-08-12T16:16:22.524Z,0.50
2022-08-12T16:21:51.678Z,0.70
2022-08-12T16:24:07.460Z,1.00
2022-08-12T16:26:35.796Z,0.65
2022-08-12T16:29:15.050Z,0.65
2022-08-12T16:31:42.510Z,0.77
2022-08-12T16:34:26.193Z,1.17
2022-08-12T16:37:02.032Z,0.90
2022-08-12T16:39:32.813Z,0.88
2022-08-12T16:42:22.529Z,0.90
2022-08-12T16:44:49.871Z,1.10
2022-08-12T16:47:16.817Z,0.77
2022-08-12T16:49:45.448Z,0.97
2022-08-12T16:52:14.447Z,1.08
2022-08-12T16:54:44.093Z,0.85
2022-08-12T16:57:11.257Z,0.68
2022-08-12T16:59:54.606Z,0.65
2022-08-12T17:02:34.131Z,1.02
2022-08-12T17:05:04.634Z,0.85
2022-08-12T17:07:37.760Z,1.02
2022-08-12T17:10:07.264Z,1.30
2022-08-12T17:12:37.568Z,1.05
2022-08-12T17:15:51.189Z,1.10
2022-08-12T17:18:15.199Z,0.90
2022-08-12T17:20:46.997Z,0.90
2022-08-12T17:23:19.124Z,1.00
2022-08-12T17:25:51.802Z,0.90
2022-08-12T17:28:21.375Z,0.80
2022-08-12T17:30:57.523Z,0.82
2022-08-12T17:33:27.579Z,0.80
2022-08-12T17:35:58.516Z,1.15
2022-08-12T17:38:25.255Z,1.08
2022-08-12T17:40:52.058Z,0.93
2022-08-12T17:43:56.615Z,0.80
2022-08-12T17:46:13.172Z,1.10
2022-08-12T17:48:54.893Z,0.65
2022-08-12T17:51:24.013Z,0.90
2022-08-12T17:54:10.709Z,0.88
2022-08-12T17:56:39.338Z,0.70
2022-08-12T17:59:07.554Z,0.90
2022-08-12T18:01:35.886Z,1.05
2022-08-12T18:04:20.874Z,0.93
2022-08-12T18:06:49.367Z,1.10
2022-08-12T18:09:17.684Z,1.17
2022-08-12T18:12:07.924Z,1.30
2022-08-12T18:14:38.087Z,1.00
2022-08-12T18:17:08.663Z,0.80
2022-08-12T18:20:06.961Z,1.23
2022-08-12T18:22:30.961Z,1.15
2022-08-12T18:25:04.011Z,1.08
2022-08-12T18:27:44.596Z,0.90
2022-08-12T18:30:20.844Z,1.10
2022-08-12T18:33:03.553Z,1.30
2022-08-12T18:35:46.929Z,1.00
2022-08-12T18:38:21.789Z,1.15
2022-08-12T18:41:09.350Z,1.30
2022-08-12T18:43:38.933Z,1.13
2022-08-12T18:46:53.297Z,1.00
2022-08-12T18:49:38.860Z,1.17
2022-08-12T18:52:08.124Z,1.60
2022-08-12T18:54:49.750Z,0.70
2022-08-12T18:58:07.699Z,1.02
2022-08-12T19:00:18.725Z,0.80
2022-08-12T19:02:50.241Z,0.98
2022-08-12T19:05:19.992Z,1.23
2022-08-12T19:08:00.833Z,1.10
2022-08-12T19:10:30.484Z,1.00
2022-08-12T19:13:23.017Z,1.58
2022-08-12T19:15:57.736Z,1.10
2022-08-12T19:18:29.408Z,0.93
2022-08-12T19:20:57.520Z,1.00
2022-08-12T19:23:25.413Z,1.25
2022-08-12T19:26:03.505Z,1.33
2022-08-12T19:28:35.164Z,0.90
2022-08-12T19:31:44.755Z,0.80
2022-08-12T19:35:32.784Z,0.90
2022-08-12T19:40:19.833Z,1.00
2022-08-12T19:43:00.717Z,1.13
2022-08-12T19:45:41.753Z,1.13
2022-08-12T19:48:17.265Z,1.20
2022-08-12T19:50:50.317Z,1.33
2022-08-12T19:53:22.547Z,1.40
2022-08-12T19:55:52.752Z,1.48
2022-08-12T19:58:20.221Z,1.63
2022-08-12T20:00:52.574Z,1.48
2022-08-12T20:03:38.964Z,1.85
2022-08-12T20:06:16.028Z,1.67
2022-08-12T20:08:55.914Z,1.02
2022-08-12T20:12:12.225Z,0.90
2022-08-12T20:14:19.193Z,1.33
2022-08-12T20:16:52.240Z,1.95
2022-08-12T20:19:24.899Z,2.20
2022-08-12T20:22:14.234Z,1.40
2022-08-12T20:24:42.961Z,1.33
2022-08-12T20:27:28.828Z,1.65
2022-08-12T20:30:00.711Z,1.30
2022-08-12T20:32:29.422Z,1.70
2022-08-12T20:34:56.458Z,0.93
2022-08-12T20:38:06.676Z,1.27
2022-08-12T20:40:15.173Z,1.70
2022-08-12T20:42:41.923Z,1.40
2022-08-12T20:45:09.047Z,1.55
2022-08-12T20:47:42.082Z,1.30
2022-08-12T20:50:13.999Z,1.60
2022-08-12T20:52:41.183Z,1.33
2022-08-12T20:55:15.542Z,1.30
2022-08-12T20:58:02.692Z,1.30
2022-08-12T21:00:31.856Z,1.48
2022-08-12T21:03:19.631Z,1.42
2022-08-12T21:06:12.157Z,1.92
2022-08-12T21:08:40.415Z,1.40
2022-08-12T21:11:09.589Z,1.23
2022-08-12T21:13:39.439Z,1.80
2022-08-12T21:16:09.795Z,1.42
2022-08-12T21:18:37.584Z,1.48
2022-08-12T21:21:06.825Z,1.63
2022-08-12T21:23:50.406Z,1.30
2022-08-12T21:26:17.967Z,1.55
2022-08-12T21:28:56.564Z,1.58
2022-08-12T21:32:46.870Z,1.65
2022-08-12T21:34:19.925Z,1.60
2022-08-12T21:36:49.482Z,1.55
2022-08-12T21:39:21.405Z,1.80
2022-08-12T21:41:54.214Z,1.27
2022-08-12T21:45:46.962Z,1.30
2022-08-12T21:47:20.206Z,1.60
2022-08-12T21:50:03.476Z,1.77
2022-08-12T21:52:41.097Z,1.40
2022-08-12T21:55:17.762Z,1.63
2022-08-12T21:57:53.122Z,2.00
2022-08-12T22:00:32.621Z,1.75
2022-08-12T22:04:04.446Z,2.05
2022-08-12T22:06:30.654Z,1.57
2022-08-12T22:09:16.454Z,1.60
2022-08-12T22:11:49.198Z,2.25
2022-08-12T22:14:24.071Z,2.33
2022-08-12T22:16:52.782Z,1.88
2022-08-12T22:19:21.034Z,1.60
2022-08-12T22:21:54.791Z,1.70
2022-08-12T22:24:27.196Z,1.75
2022-08-12T22:27:14.464Z,1.73
2022-08-12T22:30:07.657Z,1.98
2022-08-12T22:32:47.315Z,2.15
2022-08-12T22:35:30.039Z,2.47
2022-08-12T22:38:23.510Z,1.77
2022-08-12T22:40:53.008Z,1.60
2022-08-12T22:43:59.032Z,1.25
2022-08-12T22:46:52.924Z,1.50
2022-08-12T22:49:36.934Z,1.60
2022-08-12T22:52:13.095Z,1.80
2022-08-12T22:55:00.096Z,2.08
2022-08-12T22:57:53.799Z,2.05
2022-08-12T23:00:27.581Z,1.67
2022-08-12T23:03:03.469Z,1.33
2022-08-12T23:05:49.304Z,1.80
2022-08-12T23:08:21.347Z,1.58
2022-08-12T23:10:50.547Z,1.95
2022-08-12T23:13:43.418Z,1.80
2022-08-12T23:16:27.945Z,1.70
2022-08-12T23:19:10.816Z,1.83
2022-08-12T23:22:06.306Z,1.75
2022-08-12T23:24:56.260Z,2.05
2022-08-12T23:27:50.107Z,2.03
2022-08-12T23:30:25.009Z,1.70
2022-08-12T23:32:59.999Z,1.88
2022-08-12T23:35:45.943Z,1.60
2022-08-12T23:38:30.533Z,1.70
2022-08-12T23:40:58.213Z,1.75
2022-08-12T23:43:25.554Z,1.90
2022-08-12T23:46:00.477Z,1.80
2022-08-12T23:48:31.493Z,2.17
2022-08-12T23:50:59.471Z,2.03
2022-08-12T23:53:32.394Z,1.80
2022-08-12T23:55:59.572Z,1.80
2022-08-12T23:58:28.218Z,1.98
